• Join FlightAware (Why Join?)
  • Login
  • US Flag 
04:36PM EDT


 

Airport Tracker/Info


-or-


 

Live Flight TrackerFlight Track Log ✈ RPA3228 ✈ 03-Sep-2013 ✈ KDCA - KBUF

Flight Track Log - Related Links

Times and Time Zones

All times are in EDT time to prevent confusion due to time zone crossing. See the RPA3228 flight status page for this flight to view local times or setup timezone preferences in your user account.

Time Position Orientation Groundspeed Altitude Reporting Facility
EDT Latitude Longitude Course Direction KTS MPH feet Rate Location/Type
10:29AM 38.8667 -77.0500 333° Northwest 144 166 1,200  Level Potomac TRACON
10:32AM 39.1743 -77.2099 330° Northwest  Level FlightAware Approximate
10:32AM 38.9656 -77.1642 318° Northwest 228 262 5,800  Level Washington Center
10:33AM 39.2614 -77.2489 337° Northwest  Level FlightAware Approximate
10:33AM 39.0211 -77.2214 321° Northwest 250 288 9,600  Level Washington Center
10:34AM 39.3465 -77.2962 337° Northwest  Level FlightAware Approximate
10:34AM 39.0492 -77.3075 293° West 250 288 11,100  Level Washington Center
10:35AM 39.4301 -77.3478 333° Northwest  Level FlightAware Approximate
10:35AM 39.1150 -77.3706 323° Northwest 267 307 13,700  Level Washington Center
10:36AM 39.2086 -77.3864 353° North 280 322 16,000 2,220 Climbing Washington Center
10:37AM 39.3083 -77.4022 353° North 321 369 18,200 2,160 Climbing Washington Center
10:38AM 39.4081 -77.4181 353° North 346 398 20,400 1,920 Climbing Washington Center
10:40AM 39.6464 -77.4633 352° North 388 447 24,200 1,680 Climbing New York Center
10:41AM 39.7567 -77.5008 345° North 394 453 25,700 900 Climbing New York Center
10:42AM 39.8653 -77.5383 345° North 399 459 26,000 120 Climbing New York Center
10:43AM 39.9756 -77.5761 345° North 399 459 26,000  Level New York Center
10:45AM 40.1942 -77.6531 345° North 403 464 26,000  Level Cleveland Center
10:46AM 40.3056 -77.6917 345° North 395 455 26,000  Level Cleveland Center
10:47AM 40.4192 -77.7303 345° North 400 460 26,000  Level Cleveland Center
10:48AM 40.5392 -77.7717 345° North 418 481 26,000  Level Cleveland Center
10:49AM 40.6569 -77.8133 345° North 433 498 26,000  Level Cleveland Center
10:50AM 40.7661 -77.8525 345° North 441 507 26,000  Level Cleveland Center
10:51AM 40.8839 -77.8944 345° North 441 507 26,000  Level Cleveland Center
10:52AM 41.0039 -77.9361 345° North 441 507 26,000  Level Cleveland Center
10:53AM 41.1217 -77.9811 344° North 441 507 26,000  Level Cleveland Center
10:54AM 41.2414 -78.0233 345° North 441 507 26,000  Level Cleveland Center
10:55AM 41.3611 -78.0628 346° North 441 507 26,000  Level Cleveland Center
10:56AM 41.4767 -78.1081 344° North 441 507 26,000  Level Cleveland Center
10:57AM 41.5964 -78.1508 345° North 441 507 26,000  Level Cleveland Center
10:58AM 41.7267 -78.1986 345° North 441 507 26,000 -720 Level Cleveland Center
10:59AM 41.8422 -78.2392 345° North 436 502 24,600 -2,100 Descending Cleveland Center
11:00AM 41.9514 -78.2797 345° North 424 488 21,900 -2,700 Descending Cleveland Center
11:01AM 42.0628 -78.3206 345° North 415 478 19,200 -2,640 Descending Cleveland Center
11:02AM 42.1658 -78.3589 345° North 396 456 16,700 -2,340 Descending Cleveland Center
11:03AM 42.2581 -78.3950 344° North 390 449 14,600 -2,280 Descending Cleveland Center
11:04AM 42.3547 -78.4308 345° North 373 429 12,200 -2,100 Descending Cleveland Center
11:05AM 42.4492 -78.4642 345° North 360 414 10,500 -1,320 Descending Cleveland Center
11:06AM 42.5267 -78.4928 345° North 324 373 9,600 -1,380 Descending Cleveland Center
11:07AM 42.6017 -78.4875 North 285 328 7,800 -1,800 Descending Cleveland Center
11:08AM 42.6767 -78.4792 North 272 313 6,100 -900 Descending Cleveland Center
11:09AM 42.7578 -78.4794 360° North 267 307 6,000 -540 Descending Cleveland Center
11:10AM 42.8119 -78.4719 North 228 262 5,100 -1,020 Descending Cleveland Center
11:11AM 42.8722 -78.4642 North 215 247 4,000 -600 Descending Cleveland Center
11:12AM 42.9367 -78.4564 North 215 247 4,000 -540 Level Cleveland Center
11:13AM 43.0167 -78.4833 346° North 198 228 2,700 -600 Descending Buffalo TRACON
11:14AM 43.0500 -78.5500 304° West 196 226 2,400 -240 Descending Buffalo TRACON
11:15AM 43.0333 -78.6000 246° West 175 201 2,300 -60 Descending Buffalo TRACON
11:16AM 43.0000 -78.6500 228° Southwest 156 180 2,300 -420 Level Buffalo TRACON
11:17AM 42.9833 -78.6833 236° Southwest 155 178 1,600 -780 Descending Buffalo TRACON
11:18AM 42.9500 -78.7167 216° Southwest 134 154 900 -780 Descending Buffalo TRACON